createdAt,value
2023-05-09T00:02:50.847Z,15.57
2023-05-09T00:05:24.620Z,15.40
2023-05-09T00:07:59.809Z,15.24
2023-05-09T00:10:34.265Z,15.15
2023-05-09T00:13:09.208Z,15.22
2023-05-09T00:15:42.584Z,15.28
2023-05-09T00:18:20.107Z,15.38
2023-05-09T00:20:54.193Z,15.56
2023-05-09T00:23:27.137Z,15.68
2023-05-09T00:26:01.786Z,15.74
2023-05-09T00:28:28.575Z,15.91
2023-05-09T00:31:02.762Z,16.09
2023-05-09T00:33:37.183Z,16.17
2023-05-09T00:36:12.508Z,16.15
2023-05-09T00:38:36.097Z,16.11
2023-05-09T00:41:10.721Z,16.13
2023-05-09T00:43:44.283Z,16.16
2023-05-09T00:46:13.024Z,16.17
2023-05-09T00:48:48.040Z,16.17
2023-05-09T00:51:23.797Z,16.24
2023-05-09T00:53:58.327Z,16.31
2023-05-09T00:56:31.784Z,16.32
2023-05-09T00:59:05.571Z,16.20
2023-05-09T01:01:32.625Z,16.09
2023-05-09T01:04:09.085Z,16.01
2023-05-09T01:06:55.824Z,15.91
2023-05-09T01:09:47.059Z,15.71
2023-05-09T01:12:20.098Z,15.61
2023-05-09T01:15:02.289Z,15.62
2023-05-09T01:17:42.235Z,15.60
2023-05-09T01:20:15.760Z,15.65
2023-05-09T01:22:56.193Z,15.56
2023-05-09T01:25:48.155Z,15.50
2023-05-09T01:28:33.687Z,15.52
2023-05-09T01:31:09.621Z,15.44
2023-05-09T01:33:41.963Z,15.39
2023-05-09T01:36:19.622Z,15.48
2023-05-09T01:38:52.228Z,15.59
2023-05-09T01:41:28.482Z,15.64
2023-05-09T01:44:02.771Z,15.64
2023-05-09T01:46:38.405Z,15.64
2023-05-09T01:49:13.837Z,15.61
2023-05-09T01:51:48.428Z,15.60
2023-05-09T01:54:26.468Z,15.53
2023-05-09T01:57:02.284Z,15.41
2023-05-09T01:59:39.437Z,15.38
2023-05-09T02:02:15.877Z,15.32
2023-05-09T02:04:53.118Z,15.29
2023-05-09T02:07:16.287Z,15.26
2023-05-09T02:09:50.305Z,15.15
2023-05-09T02:12:24.717Z,15.13
2023-05-09T02:14:59.324Z,15.11
2023-05-09T02:17:22.666Z,15.10
2023-05-09T02:19:56.323Z,15.10
2023-05-09T02:22:24.308Z,15.03
2023-05-09T02:24:58.520Z,14.95
2023-05-09T02:27:22.474Z,14.90
2023-05-09T02:30:01.376Z,14.86
2023-05-09T02:32:37.389Z,14.81
2023-05-09T02:35:16.144Z,14.77
2023-05-09T02:37:50.917Z,14.74
2023-05-09T02:40:25.604Z,14.69
2023-05-09T02:43:00.281Z,14.62
2023-05-09T02:45:34.086Z,14.54
2023-05-09T02:47:51.137Z,14.50
2023-05-09T02:50:05.205Z,14.45
2023-05-09T02:52:22.654Z,14.39
2023-05-09T02:54:39.614Z,14.34
2023-05-09T02:57:06.445Z,14.27
2023-05-09T02:59:29.513Z,14.18
2023-05-09T03:02:01.947Z,14.10
2023-05-09T03:04:17.704Z,14.03
2023-05-09T03:06:46.167Z,13.96
2023-05-09T03:09:03.412Z,13.85
2023-05-09T03:11:28.942Z,13.78
2023-05-09T03:13:42.743Z,13.73
2023-05-09T03:16:07.332Z,13.69
2023-05-09T03:18:34.723Z,13.65
2023-05-09T03:20:55.307Z,13.59
2023-05-09T03:23:13.341Z,13.53
2023-05-09T03:25:29.143Z,13.47
2023-05-09T03:28:02.638Z,13.44
2023-05-09T03:30:27.639Z,13.44
2023-05-09T03:32:45.152Z,13.40
2023-05-09T03:35:11.098Z,13.32
2023-05-09T03:37:27.206Z,13.25
2023-05-09T03:39:56.188Z,13.23
2023-05-09T03:42:17.480Z,13.19
2023-05-09T03:44:37.579Z,13.15
2023-05-09T03:47:01.112Z,13.11
2023-05-09T03:49:28.196Z,13.07
2023-05-09T03:52:02.684Z,13.04
2023-05-09T03:54:22.905Z,12.99
2023-05-09T03:56:49.632Z,12.95
2023-05-09T03:59:14.328Z,12.92
2023-05-09T04:01:32.068Z,12.90
2023-05-09T04:04:07.028Z,12.87
2023-05-09T04:06:42.911Z,12.83
2023-05-09T04:09:00.927Z,12.80
2023-05-09T04:11:34.612Z,12.77
2023-05-09T04:13:56.517Z,12.75
2023-05-09T04:16:33.590Z,12.72
2023-05-09T04:18:56.276Z,12.69
2023-05-09T04:21:24.481Z,12.68
2023-05-09T04:23:49.409Z,12.68
2023-05-09T04:26:17.408Z,12.64
2023-05-09T04:28:51.369Z,12.63
2023-05-09T04:31:15.848Z,12.62
2023-05-09T04:33:46.208Z,12.60
2023-05-09T04:36:01.059Z,12.57
2023-05-09T04:38:21.277Z,12.54
2023-05-09T04:40:40.734Z,12.54
2023-05-09T04:42:58.562Z,12.55
2023-05-09T04:45:32.086Z,12.56
2023-05-09T04:47:58.975Z,12.58
2023-05-09T04:50:24.773Z,12.58
2023-05-09T04:52:50.332Z,12.58
2023-05-09T04:55:26.234Z,12.59
2023-05-09T04:58:00.738Z,12.60
2023-05-09T05:00:35.254Z,12.61
2023-05-09T05:03:00.884Z,12.61
2023-05-09T05:05:36.968Z,12.59
2023-05-09T05:08:12.823Z,12.57
2023-05-09T05:10:35.112Z,12.55
2023-05-09T05:13:08.480Z,12.53
2023-05-09T05:15:29.633Z,12.53
2023-05-09T05:18:01.537Z,12.52
2023-05-09T05:20:34.652Z,12.49
2023-05-09T05:23:08.040Z,12.48
2023-05-09T05:25:42.603Z,12.47
2023-05-09T05:28:01.406Z,12.45
2023-05-09T05:30:24.462Z,12.42
2023-05-09T05:32:58.603Z,12.41
2023-05-09T05:35:32.173Z,12.38
2023-05-09T05:37:49.216Z,12.38
2023-05-09T05:40:22.570Z,12.35
2023-05-09T05:42:53.736Z,12.34
2023-05-09T05:45:27.892Z,12.31
2023-05-09T05:47:50.882Z,12.30
2023-05-09T05:50:18.788Z,12.26
2023-05-09T05:52:50.137Z,12.25
2023-05-09T05:55:10.964Z,12.24
2023-05-09T05:57:24.340Z,12.23
2023-05-09T05:59:45.087Z,12.24
2023-05-09T06:05:08.178Z,12.22
2023-05-09T06:07:43.099Z,12.18
2023-05-09T06:10:18.235Z,12.16
2023-05-09T06:12:40.394Z,12.14
2023-05-09T06:15:16.246Z,12.08
2023-05-09T06:17:50.186Z,12.03
2023-05-09T06:20:18.121Z,11.98
2023-05-09T06:22:50.882Z,11.92
2023-05-09T06:25:17.034Z,11.89
2023-05-09T06:27:39.755Z,11.85
2023-05-09T06:30:14.184Z,11.82
2023-05-09T06:32:50.824Z,11.81
2023-05-09T06:35:17.770Z,11.81
2023-05-09T06:37:51.300Z,11.78
2023-05-09T06:40:24.142Z,11.76
2023-05-09T06:42:46.640Z,11.72
2023-05-09T06:45:21.660Z,11.68
2023-05-09T06:47:55.434Z,11.64
2023-05-09T06:50:14.998Z,11.60
2023-05-09T06:52:37.636Z,11.54
2023-05-09T06:55:13.402Z,11.48
2023-05-09T06:57:46.578Z,11.42
2023-05-09T07:00:17.998Z,11.40
2023-05-09T07:02:51.321Z,11.38
2023-05-09T07:05:24.729Z,11.36
2023-05-09T07:07:58.464Z,11.32
2023-05-09T07:10:32.800Z,11.27
2023-05-09T07:13:06.065Z,11.23
2023-05-09T07:15:42.483Z,11.18
2023-05-09T07:18:16.875Z,11.16
2023-05-09T07:20:43.936Z,11.13
2023-05-09T07:23:17.659Z,11.06
2023-05-09T07:25:45.048Z,10.98
2023-05-09T07:28:13.401Z,10.90
2023-05-09T07:30:46.966Z,10.82
2023-05-09T07:33:21.088Z,10.77
2023-05-09T07:35:55.824Z,10.75
2023-05-09T07:38:30.058Z,10.75
2023-05-09T07:41:03.445Z,10.75
2023-05-09T07:43:37.233Z,10.73
2023-05-09T07:46:09.952Z,10.70
2023-05-09T07:48:42.977Z,10.68
2023-05-09T07:51:05.102Z,10.64
2023-05-09T07:53:39.318Z,10.59
2023-05-09T07:56:14.454Z,10.54
2023-05-09T07:58:49.324Z,10.51
2023-05-09T08:01:22.644Z,10.48
2023-05-09T08:03:56.322Z,10.43
2023-05-09T08:06:25.486Z,10.39
2023-05-09T08:08:58.105Z,10.33
2023-05-09T08:11:33.592Z,10.29
2023-05-09T08:14:00.965Z,10.27
2023-05-09T08:16:36.135Z,10.27
2023-05-09T08:19:10.144Z,10.24
2023-05-09T08:21:44.432Z,10.21
2023-05-09T08:24:09.130Z,10.17
2023-05-09T08:26:41.776Z,10.15
2023-05-09T08:29:10.081Z,10.12
2023-05-09T08:31:45.355Z,10.09
2023-05-09T08:34:18.474Z,10.06
2023-05-09T08:36:54.143Z,10.02
2023-05-09T08:39:28.643Z,9.99
2023-05-09T08:41:51.743Z,9.96
2023-05-09T08:44:25.134Z,9.91
2023-05-09T08:47:01.910Z,9.88
2023-05-09T08:49:37.655Z,9.85
2023-05-09T08:52:12.643Z,9.83
2023-05-09T08:54:47.825Z,9.81
2023-05-09T08:57:21.173Z,9.78
2023-05-09T08:59:48.410Z,9.75
2023-05-09T09:02:22.711Z,9.72
2023-05-09T09:04:56.953Z,9.70
2023-05-09T09:07:34.042Z,9.67
2023-05-09T09:10:07.594Z,9.64
2023-05-09T09:12:36.276Z,9.62
2023-05-09T09:15:06.410Z,9.59
2023-05-09T09:17:44.099Z,9.56
2023-05-09T09:20:19.275Z,9.54
2023-05-09T09:22:55.448Z,9.53
2023-05-09T09:25:28.770Z,9.52
2023-05-09T09:28:02.519Z,9.52
2023-05-09T09:30:36.298Z,9.53
2023-05-09T09:33:13.216Z,9.54
2023-05-09T09:35:48.537Z,9.55
2023-05-09T09:38:23.777Z,9.58
2023-05-09T09:40:51.692Z,9.60
2023-05-09T09:43:30.098Z,9.61
2023-05-09T09:46:01.158Z,9.62
2023-05-09T09:51:19.390Z,9.64
2023-05-09T09:53:54.003Z,9.65
2023-05-09T09:56:41.251Z,9.66
2023-05-09T09:59:18.074Z,9.68
2023-05-09T10:02:08.534Z,9.70
2023-05-09T10:04:44.389Z,9.72
2023-05-09T10:07:14.815Z,9.76
2023-05-09T10:09:50.672Z,9.78
2023-05-09T10:15:15.792Z,9.83
2023-05-09T10:17:49.597Z,9.85
2023-05-09T10:20:16.404Z,9.86
2023-05-09T10:22:50.598Z,9.88
2023-05-09T10:25:21.325Z,9.90
2023-05-09T10:27:57.305Z,9.91
2023-05-09T10:30:35.472Z,9.93
2023-05-09T10:33:13.337Z,9.94
2023-05-09T10:35:50.829Z,9.96
2023-05-09T10:38:25.708Z,9.98
2023-05-09T10:41:00.357Z,10.01
2023-05-09T10:43:36.681Z,10.04
2023-05-09T10:46:06.661Z,10.05
2023-05-09T10:48:40.806Z,10.09
2023-05-09T10:51:04.745Z,10.09
2023-05-09T10:53:43.481Z,10.10
2023-05-09T10:59:04.976Z,10.11
2023-05-09T11:01:40.657Z,10.12
2023-05-09T11:04:20.156Z,10.14
2023-05-09T11:06:57.698Z,10.15
2023-05-09T11:09:34.006Z,10.16
2023-05-09T11:12:16.833Z,10.18
2023-05-09T11:14:51.413Z,10.18
2023-05-09T11:17:35.132Z,10.18
2023-05-09T11:20:10.607Z,10.19
2023-05-09T11:22:48.449Z,10.19
2023-05-09T11:25:18.107Z,10.22
2023-05-09T11:27:53.165Z,10.24
2023-05-09T11:30:38.031Z,10.26
2023-05-09T11:33:24.893Z,10.27
2023-05-09T11:35:51.729Z,10.26
2023-05-09T11:38:31.171Z,10.26
2023-05-09T11:41:06.054Z,10.26
2023-05-09T11:43:41.201Z,10.28
2023-05-09T11:46:16.446Z,10.29
2023-05-09T11:48:51.717Z,10.29
2023-05-09T11:51:25.249Z,10.29
2023-05-09T11:53:59.112Z,10.29
2023-05-09T11:56:33.318Z,10.30
2023-05-09T11:59:07.990Z,10.31
2023-05-09T12:01:43.710Z,10.32
2023-05-09T12:04:15.427Z,10.32
2023-05-09T12:06:53.705Z,10.34
2023-05-09T12:09:28.432Z,10.36
2023-05-09T12:12:02.323Z,10.36
2023-05-09T12:14:37.614Z,10.36
2023-05-09T12:17:11.805Z,10.35
2023-05-09T12:19:47.859Z,10.35
2023-05-09T12:22:22.667Z,10.33
2023-05-09T12:24:56.574Z,10.30
2023-05-09T12:27:19.895Z,10.29
2023-05-09T12:29:45.433Z,10.27
2023-05-09T12:32:08.866Z,10.26
2023-05-09T12:34:35.410Z,10.26
2023-05-09T12:36:59.641Z,10.26
2023-05-09T12:39:34.190Z,10.24
2023-05-09T12:42:14.921Z,10.23
2023-05-09T12:44:54.737Z,10.24
2023-05-09T12:47:21.938Z,10.24
2023-05-09T12:49:56.368Z,10.24
2023-05-09T12:52:24.784Z,10.23
2023-05-09T12:54:58.211Z,10.18
2023-05-09T12:57:31.642Z,10.15
2023-05-09T13:00:08.168Z,10.11
2023-05-09T13:02:47.251Z,10.08
2023-05-09T13:05:24.389Z,10.05
2023-05-09T13:08:00.048Z,10.00
2023-05-09T13:10:33.361Z,9.95
2023-05-09T13:13:07.575Z,9.90
2023-05-09T13:15:41.368Z,9.85
2023-05-09T13:18:15.937Z,9.83
2023-05-09T13:20:48.479Z,9.83
2023-05-09T13:23:23.332Z,9.82
2023-05-09T13:25:56.982Z,9.81
2023-05-09T13:28:31.506Z,9.83
2023-05-09T13:30:53.783Z,9.84
2023-05-09T13:35:57.366Z,9.87
2023-05-09T13:38:23.677Z,9.89
2023-05-09T13:40:56.357Z,9.92
2023-05-09T13:43:29.747Z,9.95
2023-05-09T13:46:06.196Z,9.98
2023-05-09T13:48:34.616Z,10.02
2023-05-09T13:51:02.357Z,10.08
2023-05-09T13:53:30.503Z,10.13
2023-05-09T13:55:58.790Z,10.16
2023-05-09T13:58:33.198Z,10.19
2023-05-09T14:01:06.196Z,10.24
2023-05-09T14:03:39.809Z,10.30
2023-05-09T14:06:15.489Z,10.36
2023-05-09T14:08:42.541Z,10.43
2023-05-09T14:11:14.545Z,10.50
2023-05-09T14:13:49.880Z,10.59
2023-05-09T14:16:23.775Z,10.70
2023-05-09T14:18:47.829Z,10.81
2023-05-09T14:21:20.889Z,10.94
2023-05-09T14:23:55.174Z,11.04
2023-05-09T14:26:28.551Z,11.10
2023-05-09T14:29:02.393Z,11.12
2023-05-09T14:31:29.327Z,11.17
2023-05-09T14:34:03.243Z,11.24
2023-05-09T14:36:39.512Z,11.30
2023-05-09T14:39:12.273Z,11.36
2023-05-09T14:41:45.606Z,11.43
2023-05-09T14:44:19.589Z,11.51
2023-05-09T14:46:53.301Z,11.57
2023-05-09T14:49:26.123Z,11.61
2023-05-09T14:51:57.402Z,11.66
2023-05-09T14:54:31.787Z,11.71
2023-05-09T14:57:06.028Z,11.76
2023-05-09T14:59:39.599Z,11.83
2023-05-09T15:02:13.512Z,11.87
2023-05-09T15:04:37.462Z,11.89
2023-05-09T15:07:10.853Z,11.94
2023-05-09T15:09:44.994Z,12.01
2023-05-09T15:12:18.263Z,12.07
2023-05-09T15:14:54.813Z,12.12
2023-05-09T15:17:28.387Z,12.17
2023-05-09T15:19:51.298Z,12.22
2023-05-09T15:22:19.451Z,12.27
2023-05-09T15:24:52.331Z,12.35
2023-05-09T15:27:25.011Z,12.42
2023-05-09T15:29:57.000Z,12.50
2023-05-09T15:32:23.140Z,12.53
2023-05-09T15:34:56.134Z,12.56
2023-05-09T15:37:29.200Z,12.59
2023-05-09T15:40:04.018Z,12.58
2023-05-09T15:42:38.025Z,12.53
2023-05-09T15:45:05.679Z,12.49
2023-05-09T15:47:39.117Z,12.48
2023-05-09T15:50:16.023Z,12.45
2023-05-09T15:52:50.155Z,12.42
2023-05-09T15:55:18.603Z,12.40
2023-05-09T15:57:52.593Z,12.34
2023-05-09T16:00:27.202Z,12.33
2023-05-09T16:02:50.088Z,12.32
2023-05-09T16:05:25.541Z,12.33
2023-05-09T16:07:58.933Z,12.35
2023-05-09T16:10:33.814Z,12.40
2023-05-09T16:12:57.579Z,12.41
2023-05-09T16:18:19.164Z,12.48
2023-05-09T16:23:40.596Z,12.55
2023-05-09T16:26:13.865Z,12.63
2023-05-09T16:28:58.639Z,12.70
2023-05-09T16:31:35.375Z,12.73
2023-05-09T16:34:09.590Z,12.79
2023-05-09T16:36:38.211Z,12.81
2023-05-09T16:39:12.472Z,12.85
2023-05-09T16:41:48.350Z,12.87
2023-05-09T16:44:22.471Z,12.90
2023-05-09T16:46:56.381Z,12.86
2023-05-09T16:49:30.000Z,12.83
2023-05-09T16:51:49.391Z,12.88
2023-05-09T16:54:18.464Z,12.90
2023-05-09T16:56:57.097Z,12.85
2023-05-09T16:59:31.419Z,12.76
2023-05-09T17:01:54.982Z,12.73
2023-05-09T17:04:23.077Z,12.72
2023-05-09T17:06:56.463Z,12.70
2023-05-09T17:09:29.941Z,12.71
2023-05-09T17:12:03.579Z,12.75
2023-05-09T17:14:37.500Z,12.77
2023-05-09T17:17:11.561Z,12.80
2023-05-09T17:19:45.061Z,12.86
2023-05-09T17:22:12.203Z,12.92
2023-05-09T17:24:45.848Z,13.02
2023-05-09T17:27:19.808Z,13.10
2023-05-09T17:29:53.822Z,13.17
2023-05-09T17:32:13.280Z,13.24
2023-05-09T17:34:47.971Z,13.27
2023-05-09T17:37:23.390Z,13.21
2023-05-09T17:39:57.899Z,13.21
2023-05-09T17:42:33.399Z,13.21
2023-05-09T17:45:07.458Z,13.26
2023-05-09T17:47:41.589Z,13.26
2023-05-09T17:49:55.669Z,13.29
2023-05-09T17:52:29.936Z,13.29
2023-05-09T17:55:05.230Z,13.29
2023-05-09T17:57:39.677Z,13.27
2023-05-09T18:00:17.481Z,13.26
2023-05-09T18:02:32.113Z,13.27
2023-05-09T18:05:06.902Z,13.33
2023-05-09T18:07:42.059Z,13.43
2023-05-09T18:10:06.323Z,13.47
2023-05-09T18:12:40.141Z,13.52
2023-05-09T18:15:15.616Z,13.57
2023-05-09T18:17:50.382Z,13.64
2023-05-09T18:20:24.201Z,13.71
2023-05-09T18:25:45.539Z,13.84
2023-05-09T18:28:23.970Z,13.86
2023-05-09T18:31:00.748Z,13.83
2023-05-09T18:33:37.982Z,13.85
2023-05-09T18:36:13.109Z,13.89
2023-05-09T18:38:49.419Z,13.98
2023-05-09T18:41:25.184Z,14.02
2023-05-09T18:44:01.033Z,14.02
2023-05-09T18:46:22.856Z,14.11
2023-05-09T18:48:46.000Z,14.24
2023-05-09T18:51:20.455Z,14.38
2023-05-09T18:53:55.161Z,14.42
2023-05-09T18:56:28.688Z,14.41
2023-05-09T18:58:56.202Z,14.34
2023-05-09T19:01:30.250Z,14.33
2023-05-09T19:03:55.333Z,14.45
2023-05-09T19:06:30.034Z,14.49
2023-05-09T19:09:03.230Z,14.46
2023-05-09T19:11:30.048Z,14.35
2023-05-09T19:14:04.622Z,14.27
2023-05-09T19:16:31.530Z,14.24
2023-05-09T19:19:06.560Z,14.19
2023-05-09T19:21:32.256Z,14.13
2023-05-09T19:24:09.236Z,14.08
2023-05-09T19:26:36.374Z,14.06
2023-05-09T19:28:59.661Z,14.08
2023-05-09T19:31:33.485Z,14.19
2023-05-09T19:34:08.728Z,14.26
2023-05-09T19:36:42.899Z,14.23
2023-05-09T19:39:16.538Z,14.19
2023-05-09T19:41:42.776Z,14.24
2023-05-09T19:44:16.727Z,14.26
2023-05-09T19:46:50.345Z,14.23
2023-05-09T19:49:23.681Z,14.26
2023-05-09T19:51:57.078Z,14.31
2023-05-09T19:54:33.169Z,14.36
2023-05-09T19:57:07.945Z,14.31
2023-05-09T19:59:42.828Z,14.29
2023-05-09T20:02:17.424Z,14.32
2023-05-09T20:04:42.583Z,14.33
2023-05-09T20:07:17.867Z,14.32
2023-05-09T20:09:53.595Z,14.40
2023-05-09T20:12:28.683Z,14.54
2023-05-09T20:15:04.519Z,14.69
2023-05-09T20:17:29.751Z,14.84
2023-05-09T20:20:03.979Z,14.96
2023-05-09T20:22:27.407Z,15.02
2023-05-09T20:25:01.106Z,15.05
2023-05-09T20:27:36.513Z,15.09
2023-05-09T20:30:13.672Z,15.01
2023-05-09T20:32:47.013Z,15.02
2023-05-09T20:35:22.395Z,15.16
2023-05-09T20:37:55.930Z,15.14
2023-05-09T20:40:30.837Z,15.13
2023-05-09T20:43:04.445Z,15.12
2023-05-09T20:45:39.433Z,15.12
2023-05-09T20:48:12.634Z,15.13
2023-05-09T20:50:47.557Z,15.22
2023-05-09T20:53:09.900Z,15.42
2023-05-09T20:55:44.152Z,15.52
2023-05-09T20:58:06.963Z,15.54
2023-05-09T21:00:40.383Z,15.54
2023-05-09T21:03:14.910Z,15.44
2023-05-09T21:05:48.397Z,15.40
2023-05-09T21:08:11.999Z,15.39
2023-05-09T21:10:45.794Z,15.28
2023-05-09T21:13:22.539Z,15.14
2023-05-09T21:15:57.432Z,15.04
2023-05-09T21:18:32.334Z,14.99
2023-05-09T21:21:09.928Z,14.97
2023-05-09T21:23:44.801Z,15.02
2023-05-09T21:26:18.532Z,15.01
2023-05-09T21:28:52.568Z,14.97
2023-05-09T21:31:26.329Z,14.85
2023-05-09T21:33:50.569Z,14.76
2023-05-09T21:36:14.988Z,14.72
2023-05-09T21:38:48.588Z,14.72
2023-05-09T21:41:09.140Z,14.75
2023-05-09T21:43:32.126Z,14.84
2023-05-09T21:46:06.929Z,14.91
2023-05-09T21:48:40.567Z,14.92
2023-05-09T21:51:16.277Z,14.91
2023-05-09T21:53:50.356Z,14.93
2023-05-09T21:56:26.278Z,14.86
2023-05-09T21:58:59.917Z,14.79
2023-05-09T22:01:33.133Z,14.75
2023-05-09T22:04:08.431Z,14.84
2023-05-09T22:06:36.547Z,15.02
2023-05-09T22:09:10.871Z,15.16
2023-05-09T22:11:44.158Z,15.22
2023-05-09T22:14:07.909Z,15.26
2023-05-09T22:16:43.355Z,15.28
2023-05-09T22:19:16.869Z,15.36
2023-05-09T22:21:43.103Z,15.35
2023-05-09T22:24:17.225Z,15.23
2023-05-09T22:26:50.939Z,15.19
2023-05-09T22:29:24.537Z,15.28
2023-05-09T22:31:58.417Z,15.45
2023-05-09T22:34:31.826Z,15.62
2023-05-09T22:36:57.067Z,15.75
2023-05-09T22:39:22.954Z,15.75
2023-05-09T22:41:44.871Z,15.66
2023-05-09T22:44:19.379Z,15.46
2023-05-09T22:46:42.347Z,15.24
2023-05-09T22:49:09.414Z,15.02
2023-05-09T22:51:43.270Z,15.00
2023-05-09T22:54:21.658Z,14.99
2023-05-09T22:56:56.589Z,14.97
2023-05-09T22:59:31.660Z,15.03
2023-05-09T23:02:07.750Z,15.03
2023-05-09T23:04:34.261Z,15.13
2023-05-09T23:07:07.863Z,15.14
2023-05-09T23:09:47.151Z,15.17
2023-05-09T23:12:21.899Z,15.20
2023-05-09T23:14:55.881Z,15.16
2023-05-09T23:17:29.961Z,15.16
2023-05-09T23:20:05.388Z,15.16
2023-05-09T23:22:40.220Z,15.16
2023-05-09T23:25:04.390Z,15.21
2023-05-09T23:27:41.626Z,15.20
2023-05-09T23:30:17.482Z,15.22
2023-05-09T23:32:44.233Z,15.20
2023-05-09T23:35:20.631Z,15.25
2023-05-09T23:37:54.493Z,15.15
2023-05-09T23:40:28.494Z,15.11
2023-05-09T23:43:02.288Z,15.05
2023-05-09T23:45:29.286Z,15.00
2023-05-09T23:48:04.080Z,14.95
2023-05-09T23:50:38.436Z,14.81
2023-05-09T23:53:13.126Z,14.72
2023-05-09T23:55:47.431Z,14.73
2023-05-09T23:58:11.978Z,14.74
